createdAt,value
2018-06-21T00:02:07.774Z,1.97
2018-06-21T00:04:35.363Z,2.20
2018-06-21T00:07:03.000Z,2.20
2018-06-21T00:09:31.091Z,1.97
2018-06-21T00:11:58.717Z,2.00
2018-06-21T00:14:26.372Z,2.10
2018-06-21T00:16:54.049Z,2.00
2018-06-21T00:19:21.648Z,2.20
2018-06-21T00:21:49.273Z,1.87
2018-06-21T00:24:16.886Z,2.03
2018-06-21T00:26:44.507Z,2.00
2018-06-21T00:29:12.155Z,1.87
2018-06-21T00:31:39.766Z,1.93
2018-06-21T00:34:07.355Z,2.23
2018-06-21T00:36:34.981Z,2.00
2018-06-21T00:39:02.631Z,2.10
2018-06-21T00:41:30.199Z,2.20
2018-06-21T00:43:57.979Z,2.37
2018-06-21T00:46:25.661Z,2.03
2018-06-21T00:48:53.293Z,2.10
2018-06-21T00:51:20.951Z,1.90
2018-06-21T00:53:48.625Z,1.97
2018-06-21T00:56:18.260Z,1.90
2018-06-21T00:58:46.763Z,2.07
2018-06-21T01:01:15.469Z,1.90
2018-06-21T01:03:43.253Z,2.20
2018-06-21T01:06:11.011Z,2.17
2018-06-21T01:08:38.568Z,2.00
2018-06-21T01:11:06.173Z,2.10
2018-06-21T01:13:33.789Z,2.03
2018-06-21T01:16:01.377Z,2.20
2018-06-21T01:18:29.018Z,2.03
2018-06-21T01:20:56.621Z,2.10
2018-06-21T01:23:24.195Z,2.10
2018-06-21T01:25:51.815Z,2.07
2018-06-21T01:28:19.424Z,1.97
2018-06-21T01:30:47.049Z,2.20
2018-06-21T01:33:14.626Z,2.10
2018-06-21T01:35:42.199Z,2.17
2018-06-21T01:38:09.780Z,2.20
2018-06-21T01:40:37.366Z,2.10
2018-06-21T01:43:05.192Z,2.13
2018-06-21T01:45:33.996Z,2.30
2018-06-21T01:48:01.611Z,1.90
2018-06-21T01:50:29.240Z,2.00
2018-06-21T01:52:56.851Z,2.00
2018-06-21T01:55:24.611Z,2.40
2018-06-21T01:57:52.264Z,1.97
2018-06-21T02:00:20.390Z,2.27
2018-06-21T02:02:47.957Z,2.33
2018-06-21T02:05:15.564Z,2.50
2018-06-21T02:07:43.195Z,2.20
2018-06-21T02:10:10.792Z,2.30
2018-06-21T02:12:38.714Z,2.57
2018-06-21T02:15:06.563Z,2.27
2018-06-21T02:17:34.209Z,2.30
2018-06-21T02:20:02.159Z,3.00
2018-06-21T02:22:29.987Z,3.13
2018-06-21T02:24:57.650Z,3.10
2018-06-21T02:27:25.289Z,3.17
2018-06-21T02:29:52.879Z,2.53
2018-06-21T02:32:20.504Z,2.57
2018-06-21T02:34:48.132Z,3.00
2018-06-21T02:37:15.736Z,3.47
2018-06-21T02:39:43.379Z,3.77
2018-06-21T02:42:11.004Z,3.20
2018-06-21T02:44:38.593Z,2.57
2018-06-21T02:47:06.456Z,2.50
2018-06-21T02:49:34.188Z,2.47
2018-06-21T02:52:01.797Z,2.27
2018-06-21T02:54:29.394Z,2.40
2018-06-21T02:56:56.979Z,2.43
2018-06-21T02:59:25.109Z,2.27
2018-06-21T03:01:53.308Z,2.20
2018-06-21T03:04:20.868Z,2.33
2018-06-21T03:06:48.455Z,2.37
2018-06-21T03:09:16.040Z,2.63
2018-06-21T03:11:43.691Z,2.50
2018-06-21T03:14:11.303Z,2.40
2018-06-21T03:16:38.939Z,2.17
2018-06-21T03:19:06.835Z,2.07
2018-06-21T03:21:34.407Z,2.27
2018-06-21T03:24:02.030Z,1.97
2018-06-21T03:26:30.125Z,2.60
2018-06-21T03:28:57.692Z,2.00
2018-06-21T03:31:25.351Z,1.83
2018-06-21T03:33:53.135Z,2.40
2018-06-21T03:36:20.767Z,2.30
2018-06-21T03:38:48.360Z,2.27
2018-06-21T03:41:15.951Z,2.00
2018-06-21T03:43:43.598Z,2.10
2018-06-21T03:46:11.186Z,2.10
2018-06-21T03:48:38.748Z,2.50
2018-06-21T03:51:06.583Z,2.70
2018-06-21T03:53:34.255Z,2.60
2018-06-21T03:56:01.816Z,2.50
2018-06-21T03:58:29.435Z,2.10
2018-06-21T04:00:57.023Z,2.50
2018-06-21T04:03:24.748Z,2.30
2018-06-21T04:05:52.461Z,2.67
2018-06-21T04:08:20.097Z,2.73
2018-06-21T04:10:47.695Z,2.53
2018-06-21T04:13:15.264Z,2.87
2018-06-21T04:15:42.861Z,2.70
2018-06-21T04:18:10.463Z,2.63
2018-06-21T04:20:38.118Z,2.37
2018-06-21T04:23:06.311Z,2.40
2018-06-21T04:25:33.947Z,2.33
2018-06-21T04:28:01.567Z,2.20
2018-06-21T04:30:29.184Z,2.30
2018-06-21T04:32:56.752Z,2.27
2018-06-21T04:35:24.313Z,2.53
2018-06-21T04:37:51.963Z,2.53
2018-06-21T04:40:19.592Z,2.60
2018-06-21T04:42:47.203Z,2.33
2018-06-21T04:45:14.776Z,2.20
2018-06-21T04:47:42.376Z,2.23
2018-06-21T04:50:10.033Z,2.53
2018-06-21T04:52:38.348Z,2.60
2018-06-21T04:55:05.989Z,2.70
2018-06-21T04:57:33.635Z,2.30
2018-06-21T05:00:01.285Z,2.30
2018-06-21T05:02:28.844Z,2.80
2018-06-21T05:04:56.538Z,2.60
2018-06-21T05:07:24.209Z,2.30
2018-06-21T05:09:51.813Z,2.70
2018-06-21T05:12:21.193Z,2.47
2018-06-21T05:14:49.623Z,2.47
2018-06-21T05:17:17.185Z,2.53
2018-06-21T05:19:44.805Z,2.23
2018-06-21T05:22:12.499Z,2.00
2018-06-21T05:24:40.533Z,2.00
2018-06-21T05:27:08.312Z,2.40
2018-06-21T05:29:35.927Z,2.00
2018-06-21T05:32:03.651Z,2.30
2018-06-21T05:34:31.292Z,1.97
2018-06-21T05:36:59.051Z,2.53
2018-06-21T05:39:26.908Z,2.30
2018-06-21T05:41:54.507Z,2.40
2018-06-21T05:44:22.093Z,2.30
2018-06-21T05:46:49.684Z,2.50
2018-06-21T05:49:17.213Z,2.10
2018-06-21T05:51:44.805Z,2.30
2018-06-21T05:54:12.384Z,2.07
2018-06-21T05:56:39.988Z,2.07
2018-06-21T05:59:07.608Z,2.10
2018-06-21T06:01:35.168Z,2.10
2018-06-21T06:04:02.768Z,2.10
2018-06-21T06:06:30.341Z,2.03
2018-06-21T06:11:26.746Z,2.07
2018-06-21T06:13:54.349Z,1.90
2018-06-21T06:16:22.012Z,1.93
2018-06-21T06:18:49.584Z,1.87
2018-06-21T06:21:17.180Z,2.00
2018-06-21T06:23:44.745Z,1.63
2018-06-21T06:26:12.465Z,2.00
2018-06-21T06:28:40.096Z,2.00
2018-06-21T06:31:07.623Z,2.03
2018-06-21T06:33:35.172Z,2.10
2018-06-21T06:36:02.752Z,2.23
2018-06-21T06:38:30.339Z,2.20
2018-06-21T06:40:57.935Z,2.10
2018-06-21T06:43:25.471Z,1.80
2018-06-21T06:45:53.053Z,2.20
2018-06-21T06:48:20.709Z,2.03
2018-06-21T06:50:48.242Z,2.20
2018-06-21T06:53:15.937Z,1.80
2018-06-21T06:55:45.189Z,2.00
2018-06-21T06:58:12.884Z,2.33
2018-06-21T07:00:40.471Z,1.97
2018-06-21T07:03:08.108Z,2.00
2018-06-21T07:05:35.692Z,2.00
2018-06-21T07:08:03.261Z,1.80
2018-06-21T07:10:31.382Z,1.73
2018-06-21T07:12:58.968Z,2.07
2018-06-21T07:15:26.602Z,2.23
2018-06-21T07:17:54.216Z,1.43
2018-06-21T07:20:21.889Z,2.00
2018-06-21T07:22:49.461Z,1.90
2018-06-21T07:25:17.015Z,1.63
2018-06-21T07:27:44.620Z,1.90
2018-06-21T07:30:12.233Z,1.57
2018-06-21T07:32:40.049Z,1.80
2018-06-21T07:35:08.305Z,1.90
2018-06-21T07:37:35.919Z,1.93
2018-06-21T07:40:03.634Z,1.67
2018-06-21T07:42:31.192Z,1.53
2018-06-21T07:44:58.775Z,1.73
2018-06-21T07:47:26.370Z,1.33
2018-06-21T07:49:53.946Z,1.60
2018-06-21T07:52:21.537Z,1.53
2018-06-21T07:54:49.195Z,1.53
2018-06-21T07:57:16.830Z,1.63
2018-06-21T07:59:44.446Z,1.97
2018-06-21T08:02:12.048Z,1.50
2018-06-21T08:04:39.665Z,1.70
2018-06-21T08:07:07.585Z,1.60
2018-06-21T08:09:35.180Z,1.47
2018-06-21T08:12:03.168Z,1.70
2018-06-21T08:14:30.826Z,1.53
2018-06-21T08:16:58.441Z,1.30
2018-06-21T08:19:26.008Z,1.70
2018-06-21T08:21:53.645Z,1.47
2018-06-21T08:24:21.282Z,1.43
2018-06-21T08:26:48.876Z,1.67
2018-06-21T08:29:16.495Z,1.33
2018-06-21T08:31:44.128Z,1.60
2018-06-21T08:34:11.699Z,1.80
2018-06-21T08:36:39.284Z,1.40
2018-06-21T08:39:08.190Z,1.80
2018-06-21T08:41:36.003Z,1.80
2018-06-21T08:44:03.732Z,1.67
2018-06-21T08:46:31.778Z,1.90
2018-06-21T08:48:59.502Z,1.83
2018-06-21T08:51:27.243Z,1.80
2018-06-21T08:53:54.835Z,1.57
2018-06-21T08:56:22.395Z,1.40
2018-06-21T08:58:50.259Z,1.43
2018-06-21T09:01:17.831Z,1.40
2018-06-21T09:03:45.509Z,1.60
2018-06-21T09:06:13.152Z,1.67
2018-06-21T09:08:40.888Z,1.97
2018-06-21T09:11:08.419Z,1.80
2018-06-21T09:13:37.187Z,1.90
2018-06-21T09:16:06.320Z,1.50
2018-06-21T09:18:33.927Z,1.60
2018-06-21T09:21:01.858Z,1.80
2018-06-21T09:23:29.469Z,1.80
2018-06-21T09:25:57.047Z,1.40
2018-06-21T09:28:24.655Z,1.77
2018-06-21T09:30:52.216Z,1.57
2018-06-21T09:33:19.914Z,1.63
2018-06-21T09:35:47.472Z,1.30
2018-06-21T09:38:20.820Z,1.57
2018-06-21T09:40:54.300Z,1.60
2018-06-21T09:43:27.805Z,1.57
2018-06-21T09:46:01.135Z,1.80
2018-06-21T09:48:30.044Z,1.63
2018-06-21T09:50:58.383Z,1.60
2018-06-21T09:53:26.671Z,1.60
2018-06-21T09:55:54.294Z,1.53
2018-06-21T09:58:21.911Z,1.43
2018-06-21T10:00:55.460Z,1.50
2018-06-21T10:03:23.012Z,1.40
2018-06-21T10:05:50.671Z,1.53
2018-06-21T10:08:18.388Z,1.27
2018-06-21T10:10:46.067Z,1.50
2018-06-21T10:13:13.663Z,1.43
2018-06-21T10:15:41.491Z,1.40
2018-06-21T10:18:09.100Z,1.40
2018-06-21T10:20:36.716Z,1.30
2018-06-21T10:23:04.332Z,1.47
2018-06-21T10:25:31.934Z,1.33
2018-06-21T10:27:59.562Z,1.43
2018-06-21T10:50:07.503Z,1.57
2018-06-21T10:52:35.391Z,1.30
2018-06-21T10:55:02.968Z,1.53
2018-06-21T10:57:30.607Z,1.60
2018-06-21T10:59:58.211Z,1.30
2018-06-21T11:02:25.804Z,1.43
2018-06-21T11:04:53.403Z,1.30
2018-06-21T11:07:21.011Z,1.40
2018-06-21T11:09:48.656Z,1.30
2018-06-21T11:12:16.291Z,1.70
2018-06-21T11:14:43.919Z,1.23
2018-06-21T11:17:11.511Z,1.20
2018-06-21T11:19:39.076Z,1.20
2018-06-21T11:22:06.717Z,1.50
2018-06-21T11:24:34.327Z,1.07
2018-06-21T11:27:01.978Z,1.10
2018-06-21T11:29:29.599Z,1.17
2018-06-21T11:31:57.173Z,1.30
2018-06-21T11:34:24.777Z,1.33
2018-06-21T11:36:52.361Z,1.40
2018-06-21T11:39:19.959Z,1.17
2018-06-21T11:41:47.576Z,1.13
2018-06-21T11:44:15.193Z,1.20
2018-06-21T11:46:42.788Z,1.03
2018-06-21T11:49:10.384Z,1.30
2018-06-21T11:51:38.365Z,1.50
2018-06-21T11:54:05.964Z,1.40
2018-06-21T11:56:33.611Z,1.50
2018-06-21T11:59:01.259Z,1.57
2018-06-21T12:01:28.871Z,1.37
2018-06-21T12:03:56.460Z,1.40
2018-06-21T12:06:24.092Z,1.30
2018-06-21T12:08:51.636Z,1.60
2018-06-21T12:11:19.420Z,1.80
2018-06-21T12:13:47.037Z,1.63
2018-06-21T12:16:14.739Z,1.60
2018-06-21T12:18:42.369Z,1.60
2018-06-21T12:21:10.009Z,1.50
2018-06-21T12:23:37.603Z,1.80
2018-06-21T12:26:05.244Z,1.80
2018-06-21T12:28:32.849Z,1.40
2018-06-21T12:31:00.428Z,1.40
2018-06-21T12:33:28.006Z,1.23
2018-06-21T12:35:55.617Z,1.30
2018-06-21T12:38:23.219Z,1.80
2018-06-21T12:40:50.775Z,1.70
2018-06-21T12:43:18.383Z,1.80
2018-06-21T12:45:46.154Z,1.37
2018-06-21T12:48:13.715Z,1.50
2018-06-21T12:50:41.300Z,1.85
2018-06-21T12:53:08.908Z,1.40
2018-06-21T12:55:36.482Z,1.30
2018-06-21T12:58:05.404Z,1.60
2018-06-21T13:00:32.959Z,1.30
2018-06-21T13:03:00.507Z,0.90
2018-06-21T13:05:28.114Z,0.90
2018-06-21T13:07:55.652Z,0.97
2018-06-21T13:10:41.309Z,1.00
2018-06-21T13:13:18.292Z,0.83
2018-06-21T13:15:45.890Z,1.23
2018-06-21T13:18:13.480Z,0.80
2018-06-21T13:20:41.114Z,0.97
2018-06-21T13:23:08.754Z,0.87
2018-06-21T13:25:36.330Z,0.73
2018-06-21T13:28:04.872Z,0.70
2018-06-21T13:30:32.640Z,0.77
2018-06-21T13:33:00.239Z,0.60
2018-06-21T13:35:27.855Z,1.13
2018-06-21T13:37:55.499Z,0.70
2018-06-21T13:40:23.072Z,0.67
2018-06-21T13:42:50.616Z,0.80
2018-06-21T13:45:18.219Z,0.60
2018-06-21T13:47:45.948Z,0.70
2018-06-21T13:50:13.582Z,0.53
2018-06-21T13:52:41.298Z,0.60
2018-06-21T13:55:08.964Z,0.73
2018-06-21T13:57:36.577Z,0.70
2018-06-21T14:00:05.200Z,0.80
2018-06-21T14:02:32.811Z,0.80
2018-06-21T14:05:00.413Z,0.50
2018-06-21T14:07:28.040Z,0.93
2018-06-21T14:09:55.556Z,0.73
2018-06-21T14:12:23.119Z,0.60
2018-06-21T14:14:50.682Z,0.90
2018-06-21T14:17:18.320Z,0.60
2018-06-21T14:19:45.883Z,0.70
2018-06-21T14:22:13.471Z,0.70
2018-06-21T14:24:41.051Z,0.70
2018-06-21T14:27:08.605Z,0.60
2018-06-21T14:29:36.243Z,0.57
2018-06-21T14:32:03.852Z,0.70
2018-06-21T14:34:31.494Z,0.70
2018-06-21T14:36:59.066Z,0.70
2018-06-21T14:39:26.690Z,0.80
2018-06-21T14:41:54.302Z,0.80
2018-06-21T14:44:21.859Z,0.53
2018-06-21T14:46:49.434Z,0.70
2018-06-21T14:49:17.008Z,0.73
2018-06-21T14:51:44.619Z,0.90
2018-06-21T14:54:12.200Z,0.70
2018-06-21T14:56:39.932Z,0.90
2018-06-21T14:59:07.524Z,0.80
2018-06-21T15:01:35.356Z,0.77
2018-06-21T15:04:02.950Z,0.90
2018-06-21T15:06:30.519Z,0.73
2018-06-21T15:08:58.169Z,0.83
2018-06-21T15:11:25.748Z,1.10
2018-06-21T15:13:53.363Z,0.80
2018-06-21T15:16:22.203Z,1.10
2018-06-21T15:18:49.751Z,0.77
2018-06-21T15:21:17.742Z,1.10
2018-06-21T15:23:45.385Z,0.90
2018-06-21T15:26:13.000Z,0.87
2018-06-21T15:28:40.948Z,1.00
2018-06-21T15:31:08.549Z,0.80
2018-06-21T15:33:36.110Z,0.80
2018-06-21T15:36:03.972Z,0.97
2018-06-21T15:38:31.564Z,0.90
2018-06-21T15:40:59.322Z,1.03
2018-06-21T15:43:26.937Z,1.00
2018-06-21T15:45:54.596Z,0.73
2018-06-21T15:48:23.148Z,1.20
2018-06-21T15:50:50.752Z,1.20
2018-06-21T15:53:18.360Z,1.00
2018-06-21T15:55:46.107Z,0.97
2018-06-21T15:58:13.709Z,0.80
2018-06-21T16:00:41.309Z,0.80
2018-06-21T16:03:08.931Z,1.10
2018-06-21T16:05:36.473Z,1.17
2018-06-21T16:08:04.144Z,1.07
2018-06-21T16:10:31.740Z,1.10
2018-06-21T16:12:59.299Z,1.00
2018-06-21T16:15:26.951Z,1.17
2018-06-21T16:17:54.564Z,1.10
2018-06-21T16:20:22.222Z,1.00
2018-06-21T16:22:49.928Z,1.20
2018-06-21T16:25:17.552Z,1.00
2018-06-21T16:27:45.207Z,1.17
2018-06-21T16:30:12.965Z,1.50
2018-06-21T16:32:40.783Z,1.00
2018-06-21T16:35:08.420Z,1.33
2018-06-21T16:37:36.135Z,1.10
2018-06-21T16:40:04.132Z,0.97
2018-06-21T16:42:31.755Z,1.30
2018-06-21T16:44:59.401Z,1.23
2018-06-21T16:47:27.152Z,1.40
2018-06-21T16:49:54.759Z,1.20
2018-06-21T16:52:22.512Z,1.30
2018-06-21T16:54:50.128Z,1.17
2018-06-21T16:57:17.886Z,1.00
2018-06-21T16:59:45.656Z,1.07
2018-06-21T17:02:13.329Z,1.33
2018-06-21T17:04:40.898Z,1.10
2018-06-21T17:07:08.490Z,1.20
2018-06-21T17:09:36.139Z,1.00
2018-06-21T17:12:03.759Z,0.80
2018-06-21T17:14:31.376Z,1.00
2018-06-21T17:16:58.999Z,1.00
2018-06-21T17:19:26.807Z,0.83
2018-06-21T17:21:54.400Z,1.07
2018-06-21T17:24:22.542Z,1.00
2018-06-21T17:26:50.265Z,0.83
2018-06-21T17:29:17.907Z,1.00
2018-06-21T17:31:45.599Z,0.90
2018-06-21T17:34:13.193Z,1.10
2018-06-21T17:36:41.139Z,1.10
2018-06-21T17:39:09.862Z,1.00
2018-06-21T17:41:37.394Z,0.90
2018-06-21T17:44:05.132Z,0.90
2018-06-21T17:46:32.728Z,0.70
2018-06-21T17:49:00.369Z,0.83
2018-06-21T17:51:28.238Z,0.80
2018-06-21T17:53:55.802Z,1.00
2018-06-21T17:56:23.383Z,0.97
2018-06-21T17:58:51.008Z,1.00
2018-06-21T18:01:18.639Z,0.93
2018-06-21T18:03:46.215Z,0.90
2018-06-21T18:06:13.847Z,0.60
2018-06-21T18:08:41.528Z,0.70
2018-06-21T18:11:12.478Z,0.80
2018-06-21T18:13:41.264Z,0.67
2018-06-21T18:16:08.945Z,0.70
2018-06-21T18:18:36.854Z,0.43
2018-06-21T18:21:04.559Z,0.50
2018-06-21T18:23:32.178Z,0.50
2018-06-21T18:25:59.779Z,0.70
2018-06-21T18:28:27.487Z,0.50
2018-06-21T18:30:55.134Z,0.50
2018-06-21T18:33:22.816Z,0.40
2018-06-21T18:35:50.622Z,0.30
2018-06-21T18:38:18.374Z,0.50
2018-06-21T18:40:45.964Z,0.50
2018-06-21T18:43:14.350Z,0.40
2018-06-21T18:45:42.238Z,0.50
2018-06-21T18:48:09.854Z,0.43
2018-06-21T18:50:37.521Z,0.30
2018-06-21T18:53:05.252Z,0.50
2018-06-21T18:55:32.864Z,0.50
2018-06-21T18:58:00.528Z,0.50
2018-06-21T19:00:28.139Z,0.90
2018-06-21T19:02:55.840Z,0.60
2018-06-21T19:05:23.493Z,0.50
2018-06-21T19:07:56.878Z,0.57
2018-06-21T19:10:30.384Z,0.60
2018-06-21T19:12:57.995Z,0.40
2018-06-21T19:15:25.637Z,0.43
2018-06-21T19:17:53.240Z,0.43
2018-06-21T19:20:20.913Z,0.50
2018-06-21T19:22:48.790Z,0.53
2018-06-21T19:25:16.403Z,0.40
2018-06-21T19:27:44.049Z,0.50
2018-06-21T19:30:11.748Z,0.50
2018-06-21T19:32:39.490Z,0.50
2018-06-21T19:35:07.069Z,0.40
2018-06-21T19:37:34.673Z,0.63
2018-06-21T19:40:02.332Z,0.40
2018-06-21T19:42:29.939Z,0.50
2018-06-21T19:44:57.548Z,0.50
2018-06-21T19:47:25.173Z,0.60
2018-06-21T19:49:52.758Z,0.40
2018-06-21T19:52:20.358Z,0.50
2018-06-21T19:54:47.966Z,0.60
2018-06-21T19:57:15.565Z,0.60
2018-06-21T19:59:43.170Z,0.40
2018-06-21T20:02:10.763Z,0.43
2018-06-21T20:04:38.440Z,0.60
2018-06-21T20:07:06.109Z,0.43
2018-06-21T20:09:34.085Z,0.50
2018-06-21T20:12:01.715Z,0.50
2018-06-21T20:14:29.844Z,0.60
2018-06-21T20:16:57.435Z,0.50
2018-06-21T20:19:25.043Z,0.50
2018-06-21T20:21:52.608Z,0.60
2018-06-21T20:24:20.200Z,0.60
2018-06-21T20:26:47.828Z,0.70
2018-06-21T20:29:18.774Z,0.40
2018-06-21T20:31:46.427Z,0.50
2018-06-21T20:34:14.172Z,0.57
2018-06-21T20:36:41.828Z,0.50
2018-06-21T20:39:10.253Z,0.60
2018-06-21T20:41:38.156Z,0.60
2018-06-21T20:44:05.998Z,0.50
2018-06-21T20:46:33.992Z,0.60
2018-06-21T20:49:01.761Z,0.50
2018-06-21T20:51:29.387Z,0.60
2018-06-21T20:53:57.029Z,0.50
2018-06-21T20:56:24.716Z,0.50
2018-06-21T20:58:52.392Z,0.60
2018-06-21T21:01:20.020Z,0.60
2018-06-21T21:03:47.664Z,0.57
2018-06-21T21:06:15.323Z,0.60
2018-06-21T21:08:42.947Z,0.70
2018-06-21T21:11:10.551Z,0.57
2018-06-21T21:13:38.171Z,0.70
2018-06-21T21:16:05.836Z,0.97
2018-06-21T21:18:33.436Z,0.53
2018-06-21T21:21:01.106Z,0.50
2018-06-21T21:23:29.204Z,0.90
2018-06-21T21:25:56.840Z,0.50
2018-06-21T21:28:24.431Z,0.50
2018-06-21T21:30:52.164Z,0.60
2018-06-21T21:33:19.927Z,0.40
2018-06-21T21:35:47.692Z,0.60
2018-06-21T21:38:15.329Z,0.60
2018-06-21T21:40:42.988Z,0.60
2018-06-21T21:43:10.610Z,0.50
2018-06-21T21:45:38.183Z,0.60
2018-06-21T21:48:06.048Z,0.60
2018-06-21T21:50:33.679Z,0.60
2018-06-21T21:53:02.679Z,0.53
2018-06-21T21:55:30.271Z,0.50
2018-06-21T21:57:58.823Z,0.50
2018-06-21T22:00:50.308Z,0.60
2018-06-21T22:03:18.135Z,0.60
2018-06-21T22:05:45.760Z,0.60
2018-06-21T22:08:13.357Z,0.40
2018-06-21T22:10:42.388Z,0.50
2018-06-21T22:13:10.250Z,0.50
2018-06-21T22:15:37.891Z,0.60
2018-06-21T22:18:05.676Z,0.43
2018-06-21T22:20:33.291Z,0.60
2018-06-21T22:23:00.911Z,0.50
2018-06-21T22:25:29.111Z,0.40
2018-06-21T22:27:57.700Z,0.40
2018-06-21T22:30:26.284Z,0.40
2018-06-21T22:32:54.054Z,0.50
2018-06-21T22:35:21.673Z,0.50
2018-06-21T22:37:49.761Z,0.50
2018-06-21T22:40:17.305Z,0.50
2018-06-21T22:42:45.174Z,0.53
2018-06-21T22:45:13.009Z,0.50
2018-06-21T22:47:40.618Z,0.40
2018-06-21T22:50:08.263Z,0.50
2018-06-21T22:52:35.906Z,0.30
2018-06-21T22:55:03.513Z,0.50
2018-06-21T22:57:31.251Z,0.50
2018-06-21T22:59:59.015Z,0.40
2018-06-21T23:02:26.657Z,0.47
2018-06-21T23:04:54.286Z,0.30
2018-06-21T23:07:22.247Z,0.40
2018-06-21T23:09:50.111Z,0.50
2018-06-21T23:12:17.869Z,0.50
2018-06-21T23:14:45.587Z,0.50
2018-06-21T23:17:13.116Z,0.40
2018-06-21T23:19:40.717Z,0.50
2018-06-21T23:22:08.344Z,0.40
2018-06-21T23:24:35.932Z,0.30
2018-06-21T23:27:03.938Z,0.40
2018-06-21T23:29:31.516Z,0.40
2018-06-21T23:31:59.088Z,0.30
2018-06-21T23:34:26.708Z,0.50
2018-06-21T23:36:54.355Z,0.50
2018-06-21T23:39:21.992Z,0.43
2018-06-21T23:41:49.594Z,0.40
2018-06-21T23:44:17.213Z,0.40
2018-06-21T23:46:44.765Z,0.43
2018-06-21T23:49:12.868Z,0.50
2018-06-21T23:51:40.470Z,0.50
2018-06-21T23:54:09.836Z,0.40
2018-06-21T23:56:37.812Z,0.37
2018-06-21T23:59:05.951Z,0.50
